sensor_id;sensor_type;location;lat;lon;timestamp;pressure;altitude;pressure_sealevel;temperature;humidity
46718;BME280;32448;44.960;-0.698;2022-11-22T00:00:42;100256.03;;;7.86;100.00
46718;BME280;32448;44.960;-0.698;2022-11-22T00:03:10;100234.22;;;7.78;100.00
46718;BME280;32448;44.960;-0.698;2022-11-22T00:05:37;100236.09;;;7.86;100.00
46718;BME280;32448;44.960;-0.698;2022-11-22T00:08:05;100206.50;;;7.80;100.00
46718;BME280;32448;44.960;-0.698;2022-11-22T00:10:32;100219.59;;;7.83;100.00
46718;BME280;32448;44.960;-0.698;2022-11-22T00:13:00;100195.91;;;7.69;100.00
46718;BME280;32448;44.960;-0.698;2022-11-22T00:15:28;100219.59;;;7.83;100.00
46718;BME280;32448;44.960;-0.698;2022-11-22T00:17:56;100234.34;;;7.84;100.00
46718;BME280;32448;44.960;-0.698;2022-11-22T00:20:23;100222.91;;;7.76;100.00
46718;BME280;32448;44.960;-0.698;2022-11-22T00:22:50;100224.81;;;7.86;100.00
46718;BME280;32448;44.960;-0.698;2022-11-22T00:25:18;100214.38;;;7.83;100.00
46718;BME280;32448;44.960;-0.698;2022-11-22T00:27:45;100209.88;;;7.76;100.00
46718;BME280;32448;44.960;-0.698;2022-11-22T00:30:12;100214.25;;;7.77;100.00
46718;BME280;32448;44.960;-0.698;2022-11-22T00:32:40;100207.41;;;7.82;100.00
46718;BME280;32448;44.960;-0.698;2022-11-22T00:35:09;100209.84;;;7.74;100.00
46718;BME280;32448;44.960;-0.698;2022-11-22T00:37:37;100206.41;;;7.75;100.00
46718;BME280;32448;44.960;-0.698;2022-11-22T00:40:05;100199.44;;;7.73;100.00
46718;BME280;32448;44.960;-0.698;2022-11-22T00:42:32;100211.50;;;7.69;100.00
46718;BME280;32448;44.960;-0.698;2022-11-22T00:44:59;100206.28;;;7.67;100.00
46718;BME280;32448;44.960;-0.698;2022-11-22T00:47:27;100197.44;;;7.59;100.00
46718;BME280;32448;44.960;-0.698;2022-11-22T00:49:54;100226.44;;;7.79;100.00
46718;BME280;32448;44.960;-0.698;2022-11-22T00:52:21;100236.84;;;7.79;100.00
46718;BME280;32448;44.960;-0.698;2022-11-22T00:54:49;100233.41;;;7.80;100.00
46718;BME280;32448;44.960;-0.698;2022-11-22T00:57:21;100232.56;;;7.81;100.00
46718;BME280;32448;44.960;-0.698;2022-11-22T00:59:48;100233.34;;;7.77;100.00
46718;BME280;32448;44.960;-0.698;2022-11-22T01:02:15;100227.19;;;7.72;100.00
46718;BME280;32448;44.960;-0.698;2022-11-22T01:04:43;100221.81;;;7.64;100.00
46718;BME280;32448;44.960;-0.698;2022-11-22T01:07:10;100222.84;;;7.73;100.00
46718;BME280;32448;44.960;-0.698;2022-11-22T01:09:37;100216.59;;;7.64;100.00
46718;BME280;32448;44.960;-0.698;2022-11-22T01:12:05;100223.66;;;7.70;100.00
46718;BME280;32448;44.960;-0.698;2022-11-22T01:14:33;100227.97;;;7.68;100.00
46718;BME280;32448;44.960;-0.698;2022-11-22T01:17:00;100229.78;;;7.72;100.00
46718;BME280;32448;44.960;-0.698;2022-11-22T01:19:27;100231.53;;;7.73;100.00
46718;BME280;32448;44.960;-0.698;2022-11-22T01:21:55;100222.72;;;7.66;100.00
46718;BME280;32448;44.960;-0.698;2022-11-22T01:24:22;100226.97;;;7.63;100.00
46718;BME280;32448;44.960;-0.698;2022-11-22T01:26:49;100221.81;;;7.64;100.00
46718;BME280;32448;44.960;-0.698;2022-11-22T01:29:17;100225.28;;;7.65;100.00
46718;BME280;32448;44.960;-0.698;2022-11-22T01:31:45;100226.97;;;7.61;100.00
46718;BME280;32448;44.960;-0.698;2022-11-22T01:34:12;100240.06;;;7.66;100.00
46718;BME280;32448;44.960;-0.698;2022-11-22T01:36:39;100232.84;;;7.53;100.00
46718;BME280;32448;44.960;-0.698;2022-11-22T01:39:07;100232.94;;;7.57;100.00
46718;BME280;32448;44.960;-0.698;2022-11-22T01:41:34;100242.56;;;7.61;100.00
46718;BME280;32448;44.960;-0.698;2022-11-22T01:44:22;100237.44;;;7.66;100.00
46718;BME280;32448;44.960;-0.698;2022-11-22T01:46:58;100223.25;;;7.49;100.00
46718;BME280;32448;44.960;-0.698;2022-11-22T01:49:34;100257.31;;;7.62;100.00
46718;BME280;32448;44.960;-0.698;2022-11-22T01:52:05;100262.47;;;7.59;100.00
46718;BME280;32448;44.960;-0.698;2022-11-22T01:54:37;100281.81;;;7.74;100.00
46718;BME280;32448;44.960;-0.698;2022-11-22T01:57:10;100249.97;;;7.85;100.00
46718;BME280;32448;44.960;-0.698;2022-11-22T01:59:44;100257.09;;;7.95;100.00
46718;BME280;32448;44.960;-0.698;2022-11-22T02:02:13;100282.38;;;8.01;100.00
46718;BME280;32448;44.960;-0.698;2022-11-22T02:04:42;100267.53;;;7.97;100.00
46718;BME280;32448;44.960;-0.698;2022-11-22T02:07:15;100262.94;;;7.82;100.00
46718;BME280;32448;44.960;-0.698;2022-11-22T02:09:47;100273.47;;;7.90;100.00
46718;BME280;32448;44.960;-0.698;2022-11-22T02:12:19;100272.44;;;7.80;100.00
46718;BME280;32448;44.960;-0.698;2022-11-22T02:14:48;100273.38;;;7.84;100.00
46718;BME280;32448;44.960;-0.698;2022-11-22T02:17:16;100268.88;;;7.77;100.00
46718;BME280;32448;44.960;-0.698;2022-11-22T02:19:46;100276.81;;;7.83;100.00
46718;BME280;32448;44.960;-0.698;2022-11-22T02:27:48;100275.00;;;7.79;100.00
46718;BME280;32448;44.960;-0.698;2022-11-22T02:30:17;100255.53;;;7.60;100.00
46718;BME280;32448;44.960;-0.698;2022-11-22T02:32:44;100301.28;;;7.92;100.00
46718;BME280;32448;44.960;-0.698;2022-11-22T02:35:20;100309.81;;;7.84;100.00
46718;BME280;32448;44.960;-0.698;2022-11-22T02:37:50;100283.56;;;8.17;100.00
46718;BME280;32448;44.960;-0.698;2022-11-22T02:40:19;100281.09;;;8.24;100.00
46718;BME280;32448;44.960;-0.698;2022-11-22T02:42:51;100322.81;;;8.27;100.00
46718;BME280;32448;44.960;-0.698;2022-11-22T02:45:20;100326.09;;;8.19;100.00
46718;BME280;32448;44.960;-0.698;2022-11-22T02:47:47;100307.41;;;8.38;100.00
46718;BME280;32448;44.960;-0.698;2022-11-22T02:50:15;100309.13;;;8.37;100.00
46718;BME280;32448;44.960;-0.698;2022-11-22T02:52:42;100317.75;;;8.35;100.00
46718;BME280;32448;44.960;-0.698;2022-11-22T02:55:10;100331.63;;;8.34;100.00
46718;BME280;32448;44.960;-0.698;2022-11-22T02:57:37;100329.00;;;8.32;100.00
46718;BME280;32448;44.960;-0.698;2022-11-22T03:00:05;100309.00;;;8.31;100.00
46718;BME280;32448;44.960;-0.698;2022-11-22T03:02:32;100322.09;;;8.34;100.00
46718;BME280;32448;44.960;-0.698;2022-11-22T03:04:59;100322.81;;;8.29;100.00
46718;BME280;32448;44.960;-0.698;2022-11-22T03:07:27;100313.94;;;8.19;100.00
46718;BME280;32448;44.960;-0.698;2022-11-22T03:09:55;100324.31;;;8.18;100.00
46718;BME280;32448;44.960;-0.698;2022-11-22T03:12:22;100355.66;;;8.22;100.00
46718;BME280;32448;44.960;-0.698;2022-11-22T03:14:49;100375.63;;;8.22;100.00
46718;BME280;32448;44.960;-0.698;2022-11-22T03:17:17;100401.75;;;8.26;100.00
46718;BME280;32448;44.960;-0.698;2022-11-22T03:19:44;100336.22;;;8.03;100.00
46718;BME280;32448;44.960;-0.698;2022-11-22T03:22:12;100374.28;;;7.98;100.00
46718;BME280;32448;44.960;-0.698;2022-11-22T03:24:39;100376.59;;;7.86;100.00
46718;BME280;32448;44.960;-0.698;2022-11-22T03:27:07;100355.50;;;7.71;100.00
46718;BME280;32448;44.960;-0.698;2022-11-22T03:29:34;100358.22;;;7.77;100.00
46718;BME280;32448;44.960;-0.698;2022-11-22T03:32:02;100349.47;;;7.75;100.00
46718;BME280;32448;44.960;-0.698;2022-11-22T03:34:29;100333.91;;;7.77;100.00
46718;BME280;32448;44.960;-0.698;2022-11-22T03:36:56;100335.78;;;7.82;100.00
46718;BME280;32448;44.960;-0.698;2022-11-22T03:39:23;100320.91;;;7.77;100.00
46718;BME280;32448;44.960;-0.698;2022-11-22T03:41:51;100315.84;;;7.84;100.00
46718;BME280;32448;44.960;-0.698;2022-11-22T03:44:18;100317.81;;;7.96;100.00
46718;BME280;32448;44.960;-0.698;2022-11-22T03:46:45;100309.06;;;7.91;100.00
46718;BME280;32448;44.960;-0.698;2022-11-22T03:49:13;100303.72;;;7.85;100.00
46718;BME280;32448;44.960;-0.698;2022-11-22T03:51:40;100311.50;;;7.82;100.00
46718;BME280;32448;44.960;-0.698;2022-11-22T03:54:08;100329.81;;;7.88;100.00
46718;BME280;32448;44.960;-0.698;2022-11-22T03:56:35;100316.63;;;7.79;100.00
46718;BME280;32448;44.960;-0.698;2022-11-22T03:59:03;100334.28;;;7.93;100.00
46718;BME280;32448;44.960;-0.698;2022-11-22T04:01:30;100340.31;;;7.92;100.00
46718;BME280;32448;44.960;-0.698;2022-11-22T04:03:57;100340.28;;;7.91;100.00
46718;BME280;32448;44.960;-0.698;2022-11-22T04:06:25;100341.03;;;7.85;100.00
46718;BME280;32448;44.960;-0.698;2022-11-22T04:08:52;100340.22;;;7.88;100.00
46718;BME280;32448;44.960;-0.698;2022-11-22T04:11:20;100332.34;;;7.83;100.00
46718;BME280;32448;44.960;-0.698;2022-11-22T04:13:47;100324.63;;;7.89;100.00
46718;BME280;32448;44.960;-0.698;2022-11-22T04:16:32;100318.44;;;7.84;100.00
46718;BME280;32448;44.960;-0.698;2022-11-22T04:18:59;100314.00;;;7.79;100.00
46718;BME280;32448;44.960;-0.698;2022-11-22T04:21:27;100324.53;;;7.85;100.00
46718;BME280;32448;44.960;-0.698;2022-11-22T04:26:47;100302.06;;;7.46;100.00
46718;BME280;32448;44.960;-0.698;2022-11-22T04:29:15;100334.41;;;7.59;100.00
46718;BME280;32448;44.960;-0.698;2022-11-22T04:31:43;100319.50;;;7.52;100.00
46718;BME280;32448;44.960;-0.698;2022-11-22T04:34:28;100342.06;;;7.53;100.00
46718;BME280;32448;44.960;-0.698;2022-11-22T04:36:55;100341.06;;;7.46;100.00
46718;BME280;32448;44.960;-0.698;2022-11-22T04:39:23;100341.81;;;7.42;100.00
46718;BME280;32448;44.960;-0.698;2022-11-22T04:41:54;100349.47;;;7.35;100.00
46718;BME280;32448;44.960;-0.698;2022-11-22T04:44:41;100337.19;;;7.29;100.00
46718;BME280;32448;44.960;-0.698;2022-11-22T04:47:13;100347.63;;;7.30;100.00
46718;BME280;32448;44.960;-0.698;2022-11-22T04:50:01;100335.44;;;7.28;100.00
46718;BME280;32448;44.960;-0.698;2022-11-22T04:52:28;100332.22;;;7.38;100.00
46718;BME280;32448;44.960;-0.698;2022-11-22T04:55:14;100329.50;;;7.34;100.00
46718;BME280;32448;44.960;-0.698;2022-11-22T04:57:41;100325.06;;;7.29;100.00
46718;BME280;32448;44.960;-0.698;2022-11-22T05:00:09;100322.50;;;7.31;100.00
46718;BME280;32448;44.960;-0.698;2022-11-22T05:02:37;100324.94;;;7.23;100.00
46718;BME280;32448;44.960;-0.698;2022-11-22T05:05:04;100326.66;;;7.23;100.00
46718;BME280;32448;44.960;-0.698;2022-11-22T05:07:32;100337.09;;;7.24;100.00
46718;BME280;32448;44.960;-0.698;2022-11-22T05:10:00;100327.53;;;7.23;100.00
46718;BME280;32448;44.960;-0.698;2022-11-22T05:12:27;100326.53;;;7.18;100.00
46718;BME280;32448;44.960;-0.698;2022-11-22T05:14:55;100331.94;;;7.26;100.00
46718;BME280;32448;44.960;-0.698;2022-11-22T05:17:22;100338.69;;;7.19;100.00
46718;BME280;32448;44.960;-0.698;2022-11-22T05:19:49;100324.84;;;7.20;100.00
46718;BME280;32448;44.960;-0.698;2022-11-22T05:22:17;100340.66;;;7.28;100.00
46718;BME280;32448;44.960;-0.698;2022-11-22T05:25:05;100323.25;;;7.25;100.00
46718;BME280;32448;44.960;-0.698;2022-11-22T05:27:37;100323.06;;;7.16;100.00
46718;BME280;32448;44.960;-0.698;2022-11-22T05:30:05;100308.97;;;7.07;100.00
46718;BME280;32448;44.960;-0.698;2022-11-22T05:32:33;100335.13;;;7.14;100.00
46718;BME280;32448;44.960;-0.698;2022-11-22T05:35:01;100328.13;;;7.12;100.00
46718;BME280;32448;44.960;-0.698;2022-11-22T05:37:28;100348.19;;;7.17;100.00
46718;BME280;32448;44.960;-0.698;2022-11-22T05:39:55;100359.44;;;7.16;100.00
46718;BME280;32448;44.960;-0.698;2022-11-22T05:42:23;100355.97;;;7.16;100.00
46718;BME280;32448;44.960;-0.698;2022-11-22T05:44:50;100354.28;;;7.19;100.00
46718;BME280;32448;44.960;-0.698;2022-11-22T05:47:17;100355.38;;;7.29;100.00
46718;BME280;32448;44.960;-0.698;2022-11-22T05:49:44;100352.72;;;7.26;100.00
46718;BME280;32448;44.960;-0.698;2022-11-22T05:52:12;100347.38;;;7.20;100.00
46718;BME280;32448;44.960;-0.698;2022-11-22T05:54:39;100352.56;;;7.20;100.00
46718;BME280;32448;44.960;-0.698;2022-11-22T05:57:06;100349.94;;;7.18;100.00
46718;BME280;32448;44.960;-0.698;2022-11-22T05:59:35;100329.13;;;7.17;100.00
46718;BME280;32448;44.960;-0.698;2022-11-22T06:02:09;100336.84;;;7.14;100.00
46718;BME280;32448;44.960;-0.698;2022-11-22T06:04:37;100342.03;;;7.14;100.00
46718;BME280;32448;44.960;-0.698;2022-11-22T06:07:05;100337.72;;;7.14;100.00
46718;BME280;32448;44.960;-0.698;2022-11-22T06:09:36;100324.69;;;7.13;100.00
46718;BME280;32448;44.960;-0.698;2022-11-22T06:12:03;100324.72;;;7.14;100.00
46718;BME280;32448;44.960;-0.698;2022-11-22T06:14:34;100335.34;;;7.23;100.00
46718;BME280;32448;44.960;-0.698;2022-11-22T06:17:09;100340.75;;;7.32;100.00
46718;BME280;32448;44.960;-0.698;2022-11-22T06:19:36;100338.25;;;7.37;100.00
46718;BME280;32448;44.960;-0.698;2022-11-22T06:22:04;100355.56;;;7.37;100.00
46718;BME280;32448;44.960;-0.698;2022-11-22T06:24:32;100350.34;;;7.35;100.00
46718;BME280;32448;44.960;-0.698;2022-11-22T06:26:59;100339.56;;;7.20;100.00
46718;BME280;32448;44.960;-0.698;2022-11-22T06:29:26;100347.31;;;7.17;100.00
46718;BME280;32448;44.960;-0.698;2022-11-22T06:31:55;100347.25;;;7.14;100.00
46718;BME280;32448;44.960;-0.698;2022-11-22T06:34:29;100349.72;;;7.09;100.00
46718;BME280;32448;44.960;-0.698;2022-11-22T06:36:56;100348.75;;;7.04;100.00
46718;BME280;32448;44.960;-0.698;2022-11-22T06:39:23;100354.72;;;7.02;100.00
46718;BME280;32448;44.960;-0.698;2022-11-22T06:41:51;100365.03;;;6.99;100.00
46718;BME280;32448;44.960;-0.698;2022-11-22T06:44:18;100363.16;;;6.91;100.00
46718;BME280;32448;44.960;-0.698;2022-11-22T06:46:46;100372.75;;;6.94;100.00
46718;BME280;32448;44.960;-0.698;2022-11-22T06:49:21;100353.50;;;6.87;100.00
46718;BME280;32448;44.960;-0.698;2022-11-22T06:51:49;100363.06;;;6.88;100.00
46718;BME280;32448;44.960;-0.698;2022-11-22T06:54:18;100370.91;;;6.90;100.00
46718;BME280;32448;44.960;-0.698;2022-11-22T06:56:45;100348.94;;;6.77;100.00
46718;BME280;32448;44.960;-0.698;2022-11-22T06:59:13;100346.38;;;6.79;100.00
46718;BME280;32448;44.960;-0.698;2022-11-22T07:01:40;100349.72;;;6.75;100.00
46718;BME280;32448;44.960;-0.698;2022-11-22T07:04:08;100349.72;;;6.73;100.00
46718;BME280;32448;44.960;-0.698;2022-11-22T07:06:37;100352.31;;;6.73;100.00
46718;BME280;32448;44.960;-0.698;2022-11-22T07:09:07;100340.81;;;6.65;100.00
46718;BME280;32448;44.960;-0.698;2022-11-22T07:11:34;100368.72;;;6.72;100.00
46718;BME280;32448;44.960;-0.698;2022-11-22T07:14:03;100367.00;;;6.73;100.00
46718;BME280;32448;44.960;-0.698;2022-11-22T07:16:37;100367.06;;;6.76;100.00
46718;BME280;32448;44.960;-0.698;2022-11-22T07:19:05;100368.78;;;6.74;100.00
46718;BME280;32448;44.960;-0.698;2022-11-22T07:21:33;100376.56;;;6.74;100.00
46718;BME280;32448;44.960;-0.698;2022-11-22T07:24:00;100360.94;;;6.72;100.00
46718;BME280;32448;44.960;-0.698;2022-11-22T07:26:30;100377.41;;;6.74;100.00
46718;BME280;32448;44.960;-0.698;2022-11-22T07:28:57;100406.56;;;6.96;100.00
46718;BME280;32448;44.960;-0.698;2022-11-22T07:31:24;100400.75;;;7.06;100.00
46718;BME280;32448;44.960;-0.698;2022-11-22T07:33:52;100408.59;;;7.09;100.00
46718;BME280;32448;44.960;-0.698;2022-11-22T07:36:21;100397.16;;;7.01;100.00
46718;BME280;32448;44.960;-0.698;2022-11-22T07:38:49;100397.97;;;7.00;100.00
46718;BME280;32448;44.960;-0.698;2022-11-22T07:41:17;100381.34;;;6.91;100.00
46718;BME280;32448;44.960;-0.698;2022-11-22T07:43:45;100376.06;;;6.88;100.00
46718;BME280;32448;44.960;-0.698;2022-11-22T07:48:47;100379.34;;;6.81;100.00
46718;BME280;32448;44.960;-0.698;2022-11-22T07:51:15;100389.88;;;6.87;100.00
46718;BME280;32448;44.960;-0.698;2022-11-22T07:53:43;100388.06;;;6.85;100.00
46718;BME280;32448;44.960;-0.698;2022-11-22T07:56:10;100401.22;;;6.91;100.00
46718;BME280;32448;44.960;-0.698;2022-11-22T07:58:38;100409.00;;;6.89;100.00
46718;BME280;32448;44.960;-0.698;2022-11-22T08:01:11;100410.66;;;6.87;100.00
46718;BME280;32448;44.960;-0.698;2022-11-22T08:03:39;100408.06;;;6.87;100.00
46718;BME280;32448;44.960;-0.698;2022-11-22T08:06:08;100401.84;;;6.81;100.00
46718;BME280;32448;44.960;-0.698;2022-11-22T08:12:01;100428.75;;;6.83;100.00
46718;BME280;32448;44.960;-0.698;2022-11-22T08:14:29;100432.28;;;6.86;100.00
46718;BME280;32448;44.960;-0.698;2022-11-22T08:16:56;100443.63;;;6.90;100.00
46718;BME280;32448;44.960;-0.698;2022-11-22T08:19:23;100444.44;;;6.87;100.00
46718;BME280;32448;44.960;-0.698;2022-11-22T08:21:51;100432.31;;;6.88;100.00
46718;BME280;32448;44.960;-0.698;2022-11-22T08:24:24;100432.41;;;6.91;100.00
46718;BME280;32448;44.960;-0.698;2022-11-22T08:26:51;100430.59;;;6.88;100.00
46718;BME280;32448;44.960;-0.698;2022-11-22T08:29:18;100436.72;;;6.90;100.00
46718;BME280;32448;44.960;-0.698;2022-11-22T08:31:46;100438.50;;;6.91;100.00
46718;BME280;32448;44.960;-0.698;2022-11-22T08:34:13;100426.28;;;6.89;100.00
46718;BME280;32448;44.960;-0.698;2022-11-22T08:36:40;100440.16;;;6.89;100.00
46718;BME280;32448;44.960;-0.698;2022-11-22T08:39:07;100436.63;;;6.87;100.00
46718;BME280;32448;44.960;-0.698;2022-11-22T08:41:35;100434.03;;;6.87;100.00
46718;BME280;32448;44.960;-0.698;2022-11-22T08:44:02;100437.56;;;6.89;100.00
46718;BME280;32448;44.960;-0.698;2022-11-22T08:46:30;100441.91;;;6.90;100.00
46718;BME280;32448;44.960;-0.698;2022-11-22T08:48:57;100434.03;;;6.87;100.00
46718;BME280;32448;44.960;-0.698;2022-11-22T08:51:24;100429.63;;;6.85;100.00
46718;BME280;32448;44.960;-0.698;2022-11-22T08:53:51;100435.81;;;6.88;100.00
46718;BME280;32448;44.960;-0.698;2022-11-22T08:56:19;100441.09;;;6.91;100.00
46718;BME280;32448;44.960;-0.698;2022-11-22T08:58:46;100436.06;;;6.99;100.00
46718;BME280;32448;44.960;-0.698;2022-11-22T09:01:15;100447.66;;;7.12;100.00
46718;BME280;32448;44.960;-0.698;2022-11-22T09:03:43;100446.78;;;7.11;100.00
46718;BME280;32448;44.960;-0.698;2022-11-22T09:06:13;100454.50;;;7.43;100.00
46718;BME280;32448;44.960;-0.698;2022-11-22T09:09:01;100455.84;;;7.63;100.00
46718;BME280;32448;44.960;-0.698;2022-11-22T09:11:48;100467.97;;;7.62;100.00
46718;BME280;32448;44.960;-0.698;2022-11-22T09:14:16;100464.66;;;7.68;100.00
46718;BME280;32448;44.960;-0.698;2022-11-22T09:16:44;100467.25;;;7.68;100.00
46718;BME280;32448;44.960;-0.698;2022-11-22T09:19:11;100469.91;;;7.70;100.00
46718;BME280;32448;44.960;-0.698;2022-11-22T09:21:39;100444.78;;;7.70;100.00
46718;BME280;32448;44.960;-0.698;2022-11-22T09:24:06;100437.84;;;7.71;100.00
46718;BME280;32448;44.960;-0.698;2022-11-22T09:26:34;100450.91;;;7.74;100.00
46718;BME280;32448;44.960;-0.698;2022-11-22T09:29:01;100447.47;;;7.75;100.00
46718;BME280;32448;44.960;-0.698;2022-11-22T09:31:30;100443.06;;;7.71;100.00
46718;BME280;32448;44.960;-0.698;2022-11-22T09:33:57;100452.75;;;7.78;100.00
46718;BME280;32448;44.960;-0.698;2022-11-22T09:36:25;100464.97;;;7.82;100.00
46718;BME280;32448;44.960;-0.698;2022-11-22T09:38:54;100461.53;;;7.83;100.00
46718;BME280;32448;44.960;-0.698;2022-11-22T09:49:50;100438.44;;;8.35;100.00
46718;BME280;32448;44.960;-0.698;2022-11-22T09:52:36;100435.94;;;8.42;100.00
46718;BME280;32448;44.960;-0.698;2022-11-22T09:57:59;100443.31;;;8.64;100.00
46718;BME280;32448;44.960;-0.698;2022-11-22T10:00:29;100425.94;;;8.61;100.00
46718;BME280;32448;44.960;-0.698;2022-11-22T10:03:19;100440.19;;;8.82;100.00
46718;BME280;32448;44.960;-0.698;2022-11-22T10:05:52;100415.97;;;8.87;100.00
46718;BME280;32448;44.960;-0.698;2022-11-22T10:11:00;100410.94;;;8.98;100.00
46718;BME280;32448;44.960;-0.698;2022-11-22T10:13:47;100374.31;;;8.90;100.00
46718;BME280;32448;44.960;-0.698;2022-11-22T10:16:21;100403.31;;;9.08;100.00
46718;BME280;32448;44.960;-0.698;2022-11-22T10:18:59;100413.66;;;9.04;100.00
46718;BME280;32448;44.960;-0.698;2022-11-22T10:21:29;100394.31;;;8.90;100.00
46718;BME280;32448;44.960;-0.698;2022-11-22T10:23:57;100394.56;;;9.05;100.00
46718;BME280;32448;44.960;-0.698;2022-11-22T10:26:30;100403.34;;;9.10;100.00
46718;BME280;32448;44.960;-0.698;2022-11-22T10:29:50;100391.13;;;9.07;100.00
46718;BME280;32448;44.960;-0.698;2022-11-22T10:38:07;100382.75;;;9.28;100.00
46718;BME280;32448;44.960;-0.698;2022-11-22T10:51:58;100364.22;;;9.67;100.00
46718;BME280;32448;44.960;-0.698;2022-11-22T10:57:13;100382.97;;;10.01;100.00
46718;BME280;32448;44.960;-0.698;2022-11-22T11:04:48;100422.19;;;10.07;100.00
46718;BME280;32448;44.960;-0.698;2022-11-22T11:07:20;100422.91;;;9.94;100.00
46718;BME280;32448;44.960;-0.698;2022-11-22T11:09:52;100423.94;;;10.05;100.00
46718;BME280;32448;44.960;-0.698;2022-11-22T11:13:13;100405.41;;;9.88;100.00
46718;BME280;32448;44.960;-0.698;2022-11-22T11:15:43;100418.34;;;9.79;100.00
46718;BME280;32448;44.960;-0.698;2022-11-22T11:19:06;100421.03;;;9.86;100.00
46718;BME280;32448;44.960;-0.698;2022-11-22T11:21:38;100397.53;;;9.85;100.00
46718;BME280;32448;44.960;-0.698;2022-11-22T11:24:11;100393.19;;;9.85;100.00
46718;BME280;32448;44.960;-0.698;2022-11-22T11:26:42;100385.41;;;9.89;100.00
46718;BME280;32448;44.960;-0.698;2022-11-22T11:31:49;100352.16;;;9.75;100.00
46718;BME280;32448;44.960;-0.698;2022-11-22T11:34:24;100377.78;;;10.05;100.00
46718;BME280;32448;44.960;-0.698;2022-11-22T11:36:55;100369.03;;;10.00;100.00
46718;BME280;32448;44.960;-0.698;2022-11-22T11:39:28;100367.28;;;10.01;100.00
46718;BME280;32448;44.960;-0.698;2022-11-22T11:41:56;100335.88;;;9.93;100.00
46718;BME280;32448;44.960;-0.698;2022-11-22T11:44:34;100367.41;;;10.10;100.00
46718;BME280;32448;44.960;-0.698;2022-11-22T11:47:03;100359.69;;;10.19;100.00
46718;BME280;32448;44.960;-0.698;2022-11-22T11:49:32;100371.06;;;10.23;100.00
46718;BME280;32448;44.960;-0.698;2022-11-22T11:52:17;100384.06;;;10.18;100.00
46718;BME280;32448;44.960;-0.698;2022-11-22T11:54:48;100380.47;;;10.10;100.00
46718;BME280;32448;44.960;-0.698;2022-11-22T11:57:29;100381.47;;;10.19;100.00
46718;BME280;32448;44.960;-0.698;2022-11-22T11:59:59;100378.84;;;10.18;100.00
46718;BME280;32448;44.960;-0.698;2022-11-22T12:02:40;100372.81;;;10.24;100.00
46718;BME280;32448;44.960;-0.698;2022-11-22T12:05:29;100357.88;;;10.16;100.00
46718;BME280;32448;44.960;-0.698;2022-11-22T12:07:57;100351.97;;;10.27;100.00
46718;BME280;32448;44.960;-0.698;2022-11-22T12:18:42;100330.19;;;10.28;100.00
46718;BME280;32448;44.960;-0.698;2022-11-22T12:21:21;100332.88;;;10.34;100.00
46718;BME280;32448;44.960;-0.698;2022-11-22T12:23:58;100346.03;;;10.43;100.00
46718;BME280;32448;44.960;-0.698;2022-11-22T12:26:47;100338.19;;;10.41;100.00
46718;BME280;32448;44.960;-0.698;2022-11-22T12:29:17;100328.63;;;10.42;100.00
46718;BME280;32448;44.960;-0.698;2022-11-22T12:37:18;100310.53;;;10.60;100.00
46718;BME280;32448;44.960;-0.698;2022-11-22T12:39:50;100307.03;;;10.63;100.00
46718;BME280;32448;44.960;-0.698;2022-11-22T12:42:45;100301.88;;;10.72;100.00
46718;BME280;32448;44.960;-0.698;2022-11-22T12:45:35;100300.16;;;10.74;100.00
46718;BME280;32448;44.960;-0.698;2022-11-22T12:48:16;100294.13;;;10.78;100.00
46718;BME280;32448;44.960;-0.698;2022-11-22T12:50:53;100279.31;;;10.78;100.00
46718;BME280;32448;44.960;-0.698;2022-11-22T12:53:28;100300.28;;;10.86;100.00
46718;BME280;32448;44.960;-0.698;2022-11-22T13:01:42;100301.31;;;11.03;100.00
46718;BME280;32448;44.960;-0.698;2022-11-22T13:04:17;100307.38;;;11.05;100.00
46718;BME280;32448;44.960;-0.698;2022-11-22T13:09:31;100288.16;;;10.92;100.00
46718;BME280;32448;44.960;-0.698;2022-11-22T13:12:04;100308.28;;;11.07;100.00
46718;BME280;32448;44.960;-0.698;2022-11-22T13:17:11;100303.84;;;10.97;100.00
46718;BME280;32448;44.960;-0.698;2022-11-22T13:20:04;100296.88;;;10.93;100.00
46718;BME280;32448;44.960;-0.698;2022-11-22T13:22:34;100300.41;;;11.01;100.00
46718;BME280;32448;44.960;-0.698;2022-11-22T13:28:14;100280.34;;;10.99;100.00
46718;BME280;32448;44.960;-0.698;2022-11-22T13:31:02;100281.28;;;11.08;100.00
46718;BME280;32448;44.960;-0.698;2022-11-22T13:33:32;100264.69;;;11.08;100.00
46718;BME280;32448;44.960;-0.698;2022-11-22T13:39:25;100265.59;;;11.10;100.00
46718;BME280;32448;44.960;-0.698;2022-11-22T13:44:33;100247.28;;;11.10;100.00
46718;BME280;32448;44.960;-0.698;2022-11-22T13:49:50;100243.84;;;11.14;100.00
46718;BME280;32448;44.960;-0.698;2022-11-22T13:57:28;100254.31;;;11.20;100.00
46718;BME280;32448;44.960;-0.698;2022-11-22T14:02:50;100242.94;;;11.16;100.00
46718;BME280;32448;44.960;-0.698;2022-11-22T14:08:29;100240.34;;;11.16;100.00
46718;BME280;32448;44.960;-0.698;2022-11-22T14:11:00;100229.84;;;11.10;100.00
46718;BME280;32448;44.960;-0.698;2022-11-22T14:13:55;100229.88;;;11.16;100.00
46718;BME280;32448;44.960;-0.698;2022-11-22T14:16:38;100220.25;;;11.08;100.00
46718;BME280;32448;44.960;-0.698;2022-11-22T14:25:57;100212.22;;;10.83;100.00
46718;BME280;32448;44.960;-0.698;2022-11-22T14:43:32;100212.19;;;10.77;100.00
46718;BME280;32448;44.960;-0.698;2022-11-22T14:46:17;100208.72;;;10.77;100.00
46718;BME280;32448;44.960;-0.698;2022-11-22T14:49:24;100207.81;;;10.75;100.00
46718;BME280;32448;44.960;-0.698;2022-11-22T14:51:55;100182.47;;;10.62;100.00
46718;BME280;32448;44.960;-0.698;2022-11-22T14:58:28;100181.63;;;10.67;100.00
46718;BME280;32448;44.960;-0.698;2022-11-22T15:04:13;100175.50;;;10.64;100.00
46718;BME280;32448;44.960;-0.698;2022-11-22T15:07:17;100170.28;;;10.64;100.00
46718;BME280;32448;44.960;-0.698;2022-11-22T15:10:32;100165.97;;;10.67;100.00